Time;durP1;ratioP1;P1;durP2;ratioP2;P2;SDS_P1;SDS_P2;PMS_P1;PMS_P2;Temp;Humidity;BMP_temperature;BMP_pressure;BME280_temperature;BME280_humidity;BME280_pressure;Samples;Min_cycle;Max_cycle;Signal;HPM_P1;HPM_P2
2022/06/05 00:01:29;;;;;;;0.50;0.47;;;;;;;14.46;100.00;99707.69;1675900;83;20930;-57
2022/06/05 00:04:19;;;;;;;0.95;0.50;;;;;;;14.47;100.00;99705.37;1666383;83;21112;-56
2022/06/05 00:07:07;;;;;;;0.40;0.40;;;;;;;14.50;100.00;99711.95;1696048;82;21064;-56
2022/06/05 00:09:52;;;;;;;0.40;0.40;;;;;;;14.47;100.00;99718.03;1699229;82;21073;-56
2022/06/05 00:12:26;;;;;;;1.12;0.50;;;;;;;14.42;100.00;99722.41;1681480;83;21164;-56
2022/06/05 00:14:52;;;;;;;0.35;0.33;;;;;;;14.41;100.00;99721.16;1665487;83;21123;-56
2022/06/05 00:17:21;;;;;;;0.47;0.40;;;;;;;14.43;100.00;99712.45;1680147;82;21049;-57
2022/06/05 00:19:51;;;;;;;2.42;0.50;;;;;;;14.48;100.00;99708.95;1684465;82;21018;-57
2022/06/05 00:22:18;;;;;;;3.37;0.45;;;;;;;14.53;100.00;99694.64;1701202;82;21135;-56
2022/06/05 00:24:45;;;;;;;0.70;0.40;;;;;;;14.59;100.00;99696.94;1679399;83;21119;-57
2022/06/05 00:27:21;;;;;;;0.50;0.40;;;;;;;14.61;100.00;99693.17;1679349;82;21121;-57
2022/06/05 00:29:54;;;;;;;0.50;0.50;;;;;;;14.64;100.00;99682.59;1683833;82;21096;-57
2022/06/05 00:32:44;;;;;;;0.55;0.53;;;;;;;14.66;100.00;99679.31;1680034;83;21052;-57
2022/06/05 00:35:15;;;;;;;0.75;0.70;;;;;;;14.69;100.00;99677.28;1680356;83;21142;-57
2022/06/05 00:38:01;;;;;;;4.40;0.77;;;;;;;14.73;100.00;99676.57;1680427;83;21102;-56
2022/06/05 00:40:39;;;;;;;0.78;0.60;;;;;;;14.75;100.00;99675.51;1677669;83;21238;-56
2022/06/05 00:43:11;;;;;;;2.05;0.60;;;;;;;14.81;100.00;99680.13;1702062;82;21168;-56
2022/06/05 00:45:39;;;;;;;1.00;0.50;;;;;;;14.86;100.00;99674.80;1682174;83;21764;-56
2022/06/05 00:48:10;;;;;;;0.88;0.55;;;;;;;14.91;100.00;99675.34;1666747;83;21100;-57
2022/06/05 00:50:37;;;;;;;0.72;0.50;;;;;;;14.99;100.00;99670.28;1687450;82;21075;-56
2022/06/05 00:53:07;;;;;;;0.72;0.55;;;;;;;15.07;100.00;99675.17;1680226;84;21463;-56
2022/06/05 00:55:43;;;;;;;0.50;0.50;;;;;;;15.13;100.00;99673.42;1680181;84;21374;-56
2022/06/05 00:58:09;;;;;;;0.85;0.50;;;;;;;15.18;100.00;99664.48;1682978;84;21068;-56
2022/06/05 01:00:43;;;;;;;0.98;0.50;;;;;;;15.22;100.00;99664.67;1675216;84;21087;-56
2022/06/05 01:03:12;;;;;;;0.40;0.40;;;;;;;15.26;100.00;99659.88;1687087;83;21179;-57
2022/06/05 01:05:39;;;;;;;3.42;0.40;;;;;;;15.31;100.00;99657.74;1685328;83;21076;-53
2022/06/05 01:08:07;;;;;;;0.78;0.50;;;;;;;15.31;100.00;99659.94;1700133;83;21083;-55
2022/06/05 01:10:57;;;;;;;1.50;0.50;;;;;;;15.30;100.00;99654.16;1674167;83;21389;-54
2022/06/05 01:13:33;;;;;;;0.42;0.42;;;;;;;15.30;100.00;99658.72;1677826;83;21095;-53
2022/06/05 01:16:08;;;;;;;0.50;0.40;;;;;;;15.28;100.00;99655.23;1697368;82;21239;-54
2022/06/05 01:19:15;;;;;;;0.90;0.53;;;;;;;15.27;100.00;99648.94;1685643;83;21073;-53
2022/06/05 01:21:56;;;;;;;1.62;0.40;;;;;;;15.30;100.00;99643.80;1679539;83;21505;-57
2022/06/05 01:24:41;;;;;;;1.27;0.50;;;;;;;15.34;100.00;99644.82;1690629;82;22253;-55
2022/06/05 01:27:11;;;;;;;0.62;0.60;;;;;;;15.39;100.00;99644.52;1695239;82;21110;-54
2022/06/05 01:29:48;;;;;;;1.20;0.60;;;;;;;15.43;100.00;99647.38;1695013;82;21188;-53
2022/06/05 01:32:40;;;;;;;0.78;0.70;;;;;;;15.49;100.00;99648.30;1681981;82;21718;-57
2022/06/05 01:35:17;;;;;;;1.75;0.70;;;;;;;15.54;100.00;99658.39;1679702;82;21635;-55
2022/06/05 01:37:55;;;;;;;1.37;0.80;;;;;;;15.59;100.00;99654.86;1694537;82;21121;-54
2022/06/05 01:40:45;;;;;;;0.72;0.70;;;;;;;15.63;100.00;99656.39;1695001;82;21133;-54
2022/06/05 01:43:18;;;;;;;0.88;0.57;;;;;;;15.67;100.00;99649.76;1693276;82;21853;-55
2022/06/05 01:45:57;;;;;;;1.07;0.70;;;;;;;15.70;100.00;99650.91;1691180;82;22254;-54
2022/06/05 01:48:32;;;;;;;1.87;0.50;;;;;;;15.72;100.00;99657.59;1692628;82;21116;-54
2022/06/05 01:51:02;;;;;;;0.60;0.50;;;;;;;15.70;100.00;99656.82;1695404;82;21061;-55
2022/06/05 01:53:40;;;;;;;2.45;0.50;;;;;;;15.61;100.00;99663.77;1688912;82;21140;-54
2022/06/05 01:56:39;;;;;;;1.82;0.60;;;;;;;15.55;100.00;99664.20;1688927;82;21271;-54
2022/06/05 01:59:15;;;;;;;1.65;0.50;;;;;;;15.52;100.00;99658.95;1691287;82;20938;-57
2022/06/05 02:01:45;;;;;;;0.60;0.40;;;;;;;15.53;100.00;99649.84;1688951;82;21492;-55
2022/06/05 02:04:26;;;;;;;2.50;1.47;;;;;;;15.59;100.00;99648.08;1681318;83;20895;-58
2022/06/05 02:07:12;;;;;;;5.12;0.65;;;;;;;15.59;100.00;99648.08;1671960;83;20971;-58
2022/06/05 02:09:44;;;;;;;0.70;0.60;;;;;;;15.63;100.00;99648.25;1678962;83;21476;-57
2022/06/05 02:12:11;;;;;;;0.70;0.70;;;;;;;15.67;100.00;99639.39;1675226;83;21001;-57
2022/06/05 02:14:42;;;;;;;0.75;0.60;;;;;;;15.73;100.00;99634.42;1676114;83;21595;-53
2022/06/05 02:17:07;;;;;;;1.17;0.80;;;;;;;15.73;100.00;99634.42;1676571;83;20943;-54
2022/06/05 02:19:35;;;;;;;1.27;0.70;;;;;;;15.75;100.00;99632.44;1675949;83;20967;-54
2022/06/05 02:22:23;;;;;;;1.02;0.85;;;;;;;15.79;100.00;99624.48;1676473;83;22283;-57
2022/06/05 02:24:50;;;;;;;0.85;0.72;;;;;;;15.79;100.00;99624.48;1673755;83;21078;-53
2022/06/05 02:27:21;;;;;;;2.10;0.80;;;;;;;15.80;100.00;99616.72;1711131;81;21101;-58
2022/06/05 02:29:48;;;;;;;1.20;0.70;;;;;;;15.81;100.00;99618.45;1711030;81;21591;-55
2022/06/05 02:32:32;;;;;;;1.32;0.70;;;;;;;15.83;100.00;99618.32;1717189;81;20967;-54
2022/06/05 02:35:23;;;;;;;3.30;0.70;;;;;;;15.81;100.00;99614.38;1703144;81;22174;-53
2022/06/05 02:37:58;;;;;;;1.42;0.60;;;;;;;15.79;100.00;99623.61;1711614;81;20943;-54
2022/06/05 02:40:51;;;;;;;1.00;0.45;;;;;;;15.79;100.00;99623.61;1713906;81;20939;-57
2022/06/05 02:43:35;;;;;;;1.67;0.50;;;;;;;15.70;100.00;99625.13;1717849;81;21085;-55
2022/06/05 02:46:07;;;;;;;0.65;0.40;;;;;;;15.63;100.00;99623.84;1657753;84;21081;-54
2022/06/05 02:48:46;;;;;;;0.68;0.50;;;;;;;15.60;100.00;99623.17;1660182;84;21209;-54
2022/06/05 02:51:23;;;;;;;0.65;0.50;;;;;;;15.60;100.00;99623.17;1674438;83;21074;-54
2022/06/05 02:53:56;;;;;;;2.62;0.60;;;;;;;15.62;100.00;99616.67;1651220;84;21076;-56
2022/06/05 02:56:26;;;;;;;0.93;0.62;;;;;;;15.66;100.00;99613.23;1676993;83;21121;-53
2022/06/05 02:58:55;;;;;;;2.25;0.55;;;;;;;15.70;100.00;99615.63;1675581;83;21092;-56
2022/06/05 03:04:07;;;;;;;2.65;0.75;;;;;;;15.79;100.00;99606.83;1669242;83;21710;-57
2022/06/05 03:06:35;;;;;;;1.10;0.70;;;;;;;15.83;100.00;99596.12;1673553;83;21095;-57
2022/06/05 03:09:03;;;;;;;0.80;0.70;;;;;;;15.85;100.00;99592.81;1674434;83;21079;-54
2022/06/05 03:11:31;;;;;;;3.70;0.70;;;;;;;15.88;100.00;99600.75;1671528;83;21101;-55
2022/06/05 03:13:58;;;;;;;0.90;0.70;;;;;;;15.91;100.00;99604.23;1672598;83;21484;-57
2022/06/05 03:16:28;;;;;;;2.62;0.80;;;;;;;15.95;100.00;99597.58;1677476;83;21056;-58
2022/06/05 03:18:55;;;;;;;1.02;0.75;;;;;;;15.96;100.00;99596.60;1674106;83;21085;-57
2022/06/05 03:21:22;;;;;;;5.45;0.88;;;;;;;15.96;100.00;99596.60;1670378;83;21156;-55
2022/06/05 03:23:49;;;;;;;2.05;0.60;;;;;;;15.98;100.00;99601.44;1672868;83;22188;-56
2022/06/05 03:26:17;;;;;;;0.90;0.70;;;;;;;15.98;100.00;99600.95;1680591;83;21733;-56
2022/06/05 03:28:43;;;;;;;0.70;0.60;;;;;;;16.00;100.00;99602.17;1685095;83;21078;-56
2022/06/05 03:31:10;;;;;;;1.22;0.80;;;;;;;16.02;100.00;99605.65;1674430;83;21215;-57
2022/06/05 03:33:37;;;;;;;2.55;0.80;;;;;;;16.05;100.00;99605.44;1675239;83;21053;-53
2022/06/05 03:36:11;;;;;;;1.50;0.70;;;;;;;16.07;100.00;99603.00;1675547;83;21057;-53
2022/06/05 03:38:38;;;;;;;1.07;0.40;;;;;;;16.12;100.00;99614.86;1675658;83;21596;-54
2022/06/05 03:41:05;;;;;;;2.17;0.50;;;;;;;16.16;100.00;99613.67;1674487;83;21116;-52
2022/06/05 03:43:32;;;;;;;2.15;0.42;;;;;;;16.18;100.00;99611.20;1672236;83;21862;-54
2022/06/05 03:46:06;;;;;;;0.72;0.50;;;;;;;16.21;100.00;99615.06;1675075;83;21074;-54
2022/06/05 03:48:33;;;;;;;0.50;0.40;;;;;;;16.24;100.00;99610.77;1673999;83;21101;-53
2022/06/05 03:51:13;;;;;;;0.78;0.50;;;;;;;16.27;100.00;99615.95;1680042;83;21213;-53
2022/06/05 03:53:40;;;;;;;1.37;0.68;;;;;;;16.30;100.00;99613.52;1674726;83;21049;-51
2022/06/05 03:56:09;;;;;;;0.70;0.60;;;;;;;16.31;100.00;99609.83;1724714;80;21500;-55
2022/06/05 03:58:36;;;;;;;0.60;0.60;;;;;;;16.32;100.00;99615.64;1721244;80;21022;-56
2022/06/05 04:01:05;;;;;;;1.75;0.60;;;;;;;16.33;100.00;99618.73;1722531;80;21077;-52
2022/06/05 04:03:32;;;;;;;3.70;0.60;;;;;;;16.34;100.00;99618.21;1735837;80;21098;-53
2022/06/05 04:05:58;;;;;;;0.90;0.60;;;;;;;16.35;100.00;99615.39;1732215;80;21058;-52
2022/06/05 04:08:26;;;;;;;2.72;0.50;;;;;;;16.35;100.00;99620.82;1729819;80;21065;-57
2022/06/05 04:10:54;;;;;;;0.95;0.60;;;;;;;16.35;100.00;99615.88;1722744;80;21026;-55
2022/06/05 04:13:21;;;;;;;3.60;0.55;;;;;;;16.33;100.00;99614.66;1726362;80;21124;-54
2022/06/05 04:15:47;;;;;;;0.53;0.50;;;;;;;16.32;100.00;99618.35;1726919;80;21124;-53
2022/06/05 04:18:14;;;;;;;0.70;0.60;;;;;;;16.32;100.00;99617.48;1729216;80;21097;-57
2022/06/05 04:20:41;;;;;;;0.42;0.42;;;;;;;16.33;100.00;99621.94;1722986;80;21095;-56
2022/06/05 04:23:10;;;;;;;0.50;0.50;;;;;;;16.33;100.00;99629.59;1732448;80;21593;-54
2022/06/05 04:25:36;;;;;;;0.70;0.50;;;;;;;16.31;100.00;99619.82;1724265;80;21089;-56
2022/06/05 04:28:04;;;;;;;1.05;0.60;;;;;;;16.30;100.00;99624.38;1727385;80;22048;-54
2022/06/05 04:30:36;;;;;;;0.62;0.60;;;;;;;16.27;100.00;99626.82;1728645;80;21047;-54
2022/06/05 04:33:07;;;;;;;0.68;0.60;;;;;;;16.25;100.00;99627.91;1724841;80;21550;-53
2022/06/05 04:35:36;;;;;;;1.37;0.50;;;;;;;16.23;100.00;99638.91;1732771;80;21616;-58
2022/06/05 04:38:04;;;;;;;3.25;0.50;;;;;;;16.22;100.00;99644.45;1730020;80;20996;-56
2022/06/05 04:40:31;;;;;;;0.50;0.45;;;;;;;16.21;100.00;99652.21;1731169;80;21041;-56
2022/06/05 04:42:58;;;;;;;0.45;0.42;;;;;;;16.22;100.00;99653.46;1730295;80;21062;-53
2022/06/05 04:45:25;;;;;;;0.60;0.53;;;;;;;16.24;100.00;99655.59;1725576;80;21060;-53
2022/06/05 04:47:51;;;;;;;2.02;0.50;;;;;;;16.26;100.00;99659.03;1724018;80;21128;-57
2022/06/05 04:50:19;;;;;;;0.75;0.60;;;;;;;16.29;100.00;99660.67;1724942;80;21105;-56
2022/06/05 04:52:47;;;;;;;2.15;0.60;;;;;;;16.32;100.00;99664.53;1726033;80;21338;-54
2022/06/05 04:55:14;;;;;;;2.25;0.68;;;;;;;16.35;100.00;99675.15;1727227;80;21158;-54
2022/06/05 04:57:41;;;;;;;3.52;0.90;;;;;;;16.37;100.00;99680.47;1722440;80;21048;-53
2022/06/05 05:00:09;;;;;;;0.70;0.60;;;;;;;16.40;100.00;99683.84;1729609;80;21053;-53
2022/06/05 05:02:38;;;;;;;1.60;0.70;;;;;;;16.41;100.00;99684.23;1702824;80;21065;-52
2022/06/05 05:05:06;;;;;;;1.65;0.80;;;;;;;16.44;100.00;99681.27;1720044;80;21781;-54
2022/06/05 05:07:35;;;;;;;1.40;0.80;;;;;;;16.47;100.00;99683.77;1721037;80;21561;-53
2022/06/05 05:10:02;;;;;;;3.22;0.80;;;;;;;16.50;100.00;99681.33;1722654;80;21521;-56
2022/06/05 05:12:29;;;;;;;1.72;0.70;;;;;;;16.52;100.00;99682.93;1720891;80;20934;-57
2022/06/05 05:14:55;;;;;;;1.12;0.60;;;;;;;16.57;100.00;99690.76;1721550;81;20931;-53
2022/06/05 05:17:22;;;;;;;1.98;0.60;;;;;;;16.59;100.00;99685.56;1722849;80;21716;-56
2022/06/05 05:19:49;;;;;;;3.05;0.80;;;;;;;16.66;100.00;99683.32;1699266;81;20909;-54
2022/06/05 05:22:16;;;;;;;1.02;0.70;;;;;;;16.73;100.00;99673.72;1721236;80;21777;-54
2022/06/05 05:24:43;;;;;;;2.33;0.72;;;;;;;16.79;100.00;99681.41;1722037;80;21985;-54
2022/06/05 05:27:10;;;;;;;3.70;0.68;;;;;;;16.89;100.00;99682.95;1691733;82;21068;-54
2022/06/05 05:29:39;;;;;;;1.42;0.60;;;;;;;16.98;100.00;99684.98;1684888;82;21151;-56
2022/06/05 05:32:08;;;;;;;1.55;0.60;;;;;;;17.07;100.00;99688.85;1704024;82;21096;-53
2022/06/05 05:34:37;;;;;;;0.95;0.65;;;;;;;17.12;100.00;99686.14;1694868;82;20914;-56
2022/06/05 05:37:04;;;;;;;1.82;0.75;;;;;;;17.18;100.00;99688.39;1692583;82;21050;-54
2022/06/05 05:42:18;;;;;;;1.60;0.90;;;;;;;17.25;100.00;99691.05;1686808;82;21023;-54
2022/06/05 05:44:47;;;;;;;1.22;0.80;;;;;;;17.30;100.00;99698.83;1687820;82;21544;-54
2022/06/05 05:47:18;;;;;;;1.70;0.90;;;;;;;17.31;100.00;99702.80;1684949;82;21081;-55
2022/06/05 05:49:45;;;;;;;2.47;0.90;;;;;;;17.33;100.00;99695.89;1692629;82;21086;-54
2022/06/05 05:52:13;;;;;;;2.80;1.00;;;;;;;17.33;100.00;99698.13;1687532;82;21113;-55
2022/06/05 05:54:39;;;;;;;3.45;0.90;;;;;;;17.37;100.00;99700.09;1693609;82;22271;-56
2022/06/05 05:57:08;;;;;;;3.65;0.98;;;;;;;17.37;100.00;99702.33;1687017;82;21125;-57
2022/06/05 05:59:35;;;;;;;2.92;1.07;;;;;;;17.38;100.00;99701.34;1689842;82;21165;-55
2022/06/05 06:02:02;;;;;;;3.95;1.45;;;;;;;17.40;100.00;99701.23;1687534;82;21132;-53
2022/06/05 06:04:29;;;;;;;2.30;1.87;;;;;;;17.44;100.00;99701.88;1687790;82;21214;-55
2022/06/05 06:06:55;;;;;;;3.12;1.67;;;;;;;17.45;100.00;99693.56;1686159;83;22317;-53
2022/06/05 06:09:23;;;;;;;3.98;1.75;;;;;;;17.48;100.00;99689.75;1681807;83;21537;-59
2022/06/05 06:11:51;;;;;;;1.57;1.10;;;;;;;17.51;100.00;99685.44;1670974;83;21102;-54
2022/06/05 06:14:17;;;;;;;1.52;0.80;;;;;;;17.55;100.00;99677.39;1666072;83;21495;-55
2022/06/05 06:16:44;;;;;;;3.00;0.80;;;;;;;17.61;100.00;99678.27;1673571;83;21158;-53
2022/06/05 06:19:10;;;;;;;1.10;0.80;;;;;;;17.66;100.00;99680.19;1661789;83;21293;-55
2022/06/05 06:21:39;;;;;;;6.17;0.70;;;;;;;17.72;100.00;99681.06;1664100;83;21109;-53
2022/06/05 06:24:06;;;;;;;2.50;1.15;;;;;;;17.79;100.00;99679.58;1665688;83;21276;-55
2022/06/05 06:26:32;;;;;;;2.67;0.80;;;;;;;17.85;100.00;99681.84;1667065;83;21475;-57
2022/06/05 06:28:59;;;;;;;1.72;0.70;;;;;;;17.92;100.00;99674.05;1667198;83;21122;-53
2022/06/05 06:31:26;;;;;;;0.80;0.62;;;;;;;18.00;100.00;99683.83;1666916;83;21544;-58
2022/06/05 06:33:52;;;;;;;1.45;0.80;;;;;;;18.09;100.00;99683.09;1665151;84;21166;-55
2022/06/05 06:36:19;;;;;;;0.90;0.70;;;;;;;18.15;100.00;99686.69;1667176;83;21183;-53
2022/06/05 06:38:45;;;;;;;0.75;0.53;;;;;;;18.21;100.00;99692.12;1664368;83;21148;-54
2022/06/05 06:41:17;;;;;;;1.55;0.72;;;;;;;18.26;100.00;99687.19;1667481;83;21130;-55
2022/06/05 06:43:44;;;;;;;1.30;0.60;;;;;;;18.31;100.00;99679.00;1676389;83;21142;-55
2022/06/05 06:46:12;;;;;;;3.60;0.60;;;;;;;18.37;100.00;99683.94;1667547;83;21118;-55
2022/06/05 06:48:40;;;;;;;1.75;0.70;;;;;;;18.43;100.00;99676.66;1664346;83;21126;-54
2022/06/05 06:51:07;;;;;;;5.35;0.70;;;;;;;18.48;100.00;99670.81;1664060;83;21079;-54
2022/06/05 06:53:35;;;;;;;4.10;0.60;;;;;;;18.54;100.00;99675.25;1670901;83;21126;-55
2022/06/05 06:56:16;;;;;;;1.57;0.65;;;;;;;18.60;100.00;99669.84;1667804;83;22294;-55
2022/06/05 06:58:43;;;;;;;1.50;0.60;;;;;;;18.62;100.00;99669.23;1666842;83;21578;-54
2022/06/05 07:01:12;;;;;;;2.35;0.60;;;;;;;18.66;100.00;99673.42;1671109;83;21046;-55
2022/06/05 07:03:39;;;;;;;2.25;0.70;;;;;;;18.70;100.00;99672.69;1676015;83;21097;-57
2022/06/05 07:06:09;;;;;;;1.47;0.80;;;;;;;18.73;100.00;99677.86;1665710;83;21109;-54
2022/06/05 07:08:35;;;;;;;1.27;0.70;;;;;;;18.74;100.00;99672.78;1669186;83;21234;-55
2022/06/05 07:11:05;;;;;;;5.50;0.80;;;;;;;18.77;100.00;99673.91;1667707;83;21746;-54
2022/06/05 07:13:32;;;;;;;1.10;0.70;;;;;;;18.79;100.00;99671.92;1664405;83;21093;-56
2022/06/05 07:16:01;;;;;;;1.72;0.90;;;;;;;18.80;100.00;99670.90;1663722;83;21101;-59
2022/06/05 07:18:27;;;;;;;2.50;0.80;;;;;;;18.82;100.00;99678.46;1666850;83;20935;-57
2022/06/05 07:20:54;;;;;;;1.20;0.85;;;;;;;18.82;100.00;99681.19;1666611;83;21781;-56
2022/06/05 07:23:22;;;;;;;1.10;0.85;;;;;;;18.83;100.00;99673.37;1661221;83;21074;-54
2022/06/05 07:25:51;;;;;;;1.65;1.15;;;;;;;18.83;100.00;99676.11;1667924;83;21133;-57
2022/06/05 07:28:19;;;;;;;1.55;0.90;;;;;;;18.83;100.00;99677.47;1665408;83;21061;-57
2022/06/05 07:30:47;;;;;;;1.72;1.10;;;;;;;18.79;100.00;99666.47;1669760;83;21394;-56
2022/06/05 07:33:13;;;;;;;1.90;1.05;;;;;;;18.75;100.00;99668.57;1670567;83;21842;-58
2022/06/05 07:35:41;;;;;;;4.85;1.42;;;;;;;18.73;100.00;99677.37;1666106;83;21137;-55
2022/06/05 07:38:11;;;;;;;2.92;1.62;;;;;;;18.72;100.00;99679.72;1679406;83;21065;-58
2022/06/05 07:40:41;;;;;;;5.83;1.35;;;;;;;18.68;100.00;99681.48;1666291;84;21056;-56
2022/06/05 07:43:09;;;;;;;2.92;1.72;;;;;;;18.67;100.00;99681.10;1717477;81;21090;-57
2022/06/05 07:45:37;;;;;;;1.85;1.55;;;;;;;18.66;100.00;99685.69;1718332;81;21124;-57
2022/06/05 07:48:05;;;;;;;5.95;2.20;;;;;;;18.62;100.00;99686.08;1719328;81;20986;-57
2022/06/05 07:50:33;;;;;;;5.17;2.90;;;;;;;18.58;100.00;99685.45;1714443;81;21082;-54
2022/06/05 07:55:45;;;;;;;4.85;2.55;;;;;;;18.55;100.00;99682.94;1718244;81;21050;-55
2022/06/05 07:58:12;;;;;;;4.75;2.10;;;;;;;18.50;100.00;99681.97;1714291;81;22658;-56
2022/06/05 08:00:38;;;;;;;2.80;1.40;;;;;;;18.48;100.00;99689.89;1711030;81;21069;-54
2022/06/05 08:03:06;;;;;;;3.50;1.80;;;;;;;18.44;100.00;99691.14;1715287;81;21090;-55
2022/06/05 08:05:33;;;;;;;4.65;1.05;;;;;;;18.39;100.00;99691.50;1716391;81;21093;-54
2022/06/05 08:07:59;;;;;;;1.27;0.70;;;;;;;18.35;100.00;99686.45;1714938;81;21928;-54
2022/06/05 08:10:26;;;;;;;4.60;1.00;;;;;;;18.30;100.00;99684.08;1714953;81;21147;-55
2022/06/05 08:12:54;;;;;;;1.02;0.57;;;;;;;18.27;100.00;99678.03;1679537;83;21062;-56
2022/06/05 08:15:21;;;;;;;2.33;0.60;;;;;;;18.25;100.00;99684.09;1683623;83;20923;-57
2022/06/05 08:17:48;;;;;;;1.37;0.50;;;;;;;18.22;100.00;99681.59;1675003;83;21014;-54
2022/06/05 08:20:14;;;;;;;3.25;0.80;;;;;;;18.21;100.00;99686.67;1677861;83;20967;-54
2022/06/05 08:22:41;;;;;;;2.85;0.50;;;;;;;18.22;100.00;99684.32;1674889;83;21101;-54
2022/06/05 08:25:08;;;;;;;2.42;0.72;;;;;;;18.23;100.00;99686.06;1676171;83;21395;-56
2022/06/05 08:27:34;;;;;;;0.70;0.42;;;;;;;18.23;100.00;99688.78;1676455;83;21085;-54
2022/06/05 08:30:01;;;;;;;2.00;0.40;;;;;;;18.22;100.00;99685.69;1712640;81;21094;-56
2022/06/05 08:32:28;;;;;;;0.65;0.50;;;;;;;18.21;100.00;99688.91;1715355;81;21600;-54
2022/06/05 08:34:55;;;;;;;0.50;0.50;;;;;;;18.20;100.00;99691.28;1716908;81;21143;-55
2022/06/05 08:43:44;;;;;;;2.12;0.55;;;;;;;18.13;100.00;99688.16;1717074;81;20876;-55
2022/06/05 08:46:26;;;;;;;1.07;0.53;;;;;;;18.04;100.00;99684.81;1714236;81;20931;-55
2022/06/05 08:49:00;;;;;;;1.32;0.50;;;;;;;17.98;100.00;99681.22;1727493;81;21215;-53
2022/06/05 08:51:54;;;;;;;1.30;0.57;;;;;;;17.89;100.00;99688.77;1723806;81;21493;-55
2022/06/05 08:54:38;;;;;;;1.00;0.53;;;;;;;17.79;100.00;99697.28;1717083;81;21514;-56
2022/06/05 08:57:18;;;;;;;1.42;0.60;;;;;;;17.68;100.00;99702.72;1718561;81;20970;-57
2022/06/05 09:00:12;;;;;;;1.60;0.60;;;;;;;17.66;100.00;99708.77;1713461;81;21155;-57
2022/06/05 09:02:50;;;;;;;1.87;1.00;;;;;;;17.65;100.00;99701.09;1720959;81;21280;-58
2022/06/05 09:05:28;;;;;;;2.37;0.60;;;;;;;17.61;100.00;99701.41;1719957;81;21043;-58
2022/06/05 09:07:58;;;;;;;0.90;0.80;;;;;;;17.61;100.00;99705.48;1718479;81;20943;-58
2022/06/05 09:10:47;;;;;;;1.65;0.78;;;;;;;17.65;100.00;99707.03;1722185;81;20904;-58
2022/06/05 09:13:37;;;;;;;1.17;0.65;;;;;;;17.73;100.00;99708.66;1710822;81;21509;-56
2022/06/05 09:16:06;;;;;;;0.80;0.70;;;;;;;17.82;100.00;99713.38;1675728;81;22126;-59
2022/06/05 09:18:38;;;;;;;1.35;1.25;;;;;;;17.92;100.00;99710.31;1711936;81;21029;-57
2022/06/05 09:21:19;;;;;;;1.07;0.75;;;;;;;18.01;100.00;99708.23;1715534;81;21047;-58
2022/06/05 09:24:10;;;;;;;2.10;0.65;;;;;;;18.12;100.00;99710.94;1713202;81;21379;-58
2022/06/05 09:27:12;;;;;;;2.45;0.75;;;;;;;18.23;100.00;99704.64;1703410;81;21304;-57
2022/06/05 09:29:53;;;;;;;2.27;0.70;;;;;;;18.29;100.00;99707.38;1712488;81;22216;-56
2022/06/05 09:32:48;;;;;;;2.65;0.80;;;;;;;18.37;100.00;99710.36;1718877;81;21074;-57
2022/06/05 09:35:23;;;;;;;0.80;0.70;;;;;;;18.47;100.00;99706.73;1711300;81;21022;-58
2022/06/05 09:37:58;;;;;;;1.00;0.60;;;;;;;18.47;100.00;99706.73;1692645;82;21054;-57
2022/06/05 09:40:35;;;;;;;1.55;0.70;;;;;;;18.52;100.00;99712.70;1712563;81;21586;-58
2022/06/05 09:43:28;;;;;;;2.95;0.70;;;;;;;18.55;100.00;99721.09;1714850;81;21153;-58
2022/06/05 09:46:33;;;;;;;2.25;0.70;;;;;;;18.55;100.00;99722.45;1714246;81;21085;-59
2022/06/05 09:49:04;;;;;;;0.70;0.60;;;;;;;18.51;100.00;99716.91;1708778;81;21567;-59
2022/06/05 09:51:30;;;;;;;0.70;0.60;;;;;;;18.51;100.00;99712.81;1711231;81;22210;-58
2022/06/05 09:54:29;;;;;;;1.42;0.70;;;;;;;18.52;100.00;99714.06;1716314;81;21156;-58
2022/06/05 10:00:33;;;;;;;0.85;0.40;;;;;;;18.62;100.00;99725.12;1715065;81;22482;-58
2022/06/05 10:03:04;;;;;;;2.75;0.42;;;;;;;18.69;100.00;99726.34;1701459;81;21089;-58
2022/06/05 10:05:44;;;;;;;0.60;0.40;;;;;;;18.71;100.00;99725.73;1729236;80;21084;-57
2022/06/05 10:08:24;;;;;;;0.62;0.40;;;;;;;18.70;100.00;99728.08;1730109;80;21073;-57
2022/06/05 10:10:56;;;;;;;1.12;0.40;;;;;;;18.69;100.00;99724.98;1726056;80;21164;-57
2022/06/05 10:13:34;;;;;;;1.00;0.42;;;;;;;18.72;100.00;99726.56;1731018;80;21049;-58
2022/06/05 10:18:06;;;;;;;0.40;0.40;;;;;;;18.81;100.00;99719.86;1779843;78;28154;-58
2022/06/05 10:20:57;;;;;;;0.42;0.30;;;;;;;18.80;100.00;99721.34;1743643;80;21093;-58
2022/06/05 10:23:38;;;;;;;3.80;0.30;;;;;;;18.81;100.00;99725.31;1716101;81;21549;-60
2022/06/05 10:26:15;;;;;;;1.25;0.20;;;;;;;18.85;100.00;99725.45;1708073;81;21061;-59
2022/06/05 10:28:42;;;;;;;0.57;0.40;;;;;;;18.87;100.00;99730.28;1709101;81;21306;-61
2022/06/05 10:33:43;;;;;;;0.30;0.30;;;;;;;18.98;100.00;99731.23;1775168;78;28098;-58
2022/06/05 10:36:26;;;;;;;0.85;0.30;;;;;;;19.00;100.00;99738.80;1759527;80;21095;-60
2022/06/05 10:39:07;;;;;;;0.37;0.30;;;;;;;19.01;100.00;99737.80;1715224;81;21146;-59
2022/06/05 10:41:41;;;;;;;0.40;0.30;;;;;;;19.03;100.00;99729.88;1716967;81;20965;-57
2022/06/05 10:44:22;;;;;;;0.30;0.30;;;;;;;19.06;100.00;99739.14;1715845;81;20906;-59
2022/06/05 10:47:05;;;;;;;0.40;0.30;;;;;;;19.09;100.00;99732.08;1707427;81;21052;-58
2022/06/05 10:49:47;;;;;;;0.47;0.40;;;;;;;19.11;100.00;99738.78;1693606;82;21409;-58
2022/06/05 10:52:30;;;;;;;1.00;0.30;;;;;;;19.11;100.00;99734.69;1696214;82;21829;-58
2022/06/05 10:55:34;;;;;;;0.30;0.30;;;;;;;19.15;100.00;99736.14;1694023;83;21073;-58
2022/06/05 10:58:06;;;;;;;0.62;0.40;;;;;;;19.20;100.00;99736.15;1690365;83;20970;-58
2022/06/05 11:00:41;;;;;;;1.40;0.30;;;;;;;19.26;100.00;99737.48;1680196;83;20910;-57
2022/06/05 11:03:20;;;;;;;0.30;0.30;;;;;;;19.30;100.00;99742.20;1645832;83;21117;-56
2022/06/05 11:06:04;;;;;;;0.93;0.40;;;;;;;19.33;100.00;99745.52;1689371;83;21167;-58
2022/06/05 11:08:57;;;;;;;0.40;0.30;;;;;;;19.39;100.00;99745.52;1667514;83;21088;-57
2022/06/05 11:14:40;;;;;;;0.72;0.30;;;;;;;19.64;100.00;99739.73;1850890;74;28123;-57
2022/06/05 11:17:42;;;;;;;0.53;0.37;;;;;;;19.68;100.00;99737.59;1843930;75;20929;-58
2022/06/05 11:20:23;;;;;;;0.68;0.30;;;;;;;19.80;100.00;99740.14;1841674;75;21808;-58
2022/06/05 11:23:06;;;;;;;0.40;0.30;;;;;;;19.87;100.00;99733.14;1837962;76;20838;-58
2022/06/05 11:25:37;;;;;;;1.00;0.30;;;;;;;19.93;100.00;99734.47;1838259;75;20886;-58
2022/06/05 11:28:55;;;;;;;4.12;0.40;;;;;;;19.94;100.00;99730.73;1842400;75;21342;-57
2022/06/05 11:31:30;;;;;;;0.50;0.50;;;;;;;19.99;100.00;99736.16;1844556;76;20936;-58
2022/06/05 11:34:30;;;;;;;0.40;0.40;;;;;;;20.09;100.00;99736.22;1840463;75;21111;-58
2022/06/05 11:38:19;;;;;;;0.40;0.40;;;;;;;20.12;100.00;99732.36;1643068;75;975579;-58
2022/06/05 11:41:22;;;;;;;0.50;0.50;;;;;;;20.12;100.00;99732.36;1581201;75;978419;-58
2022/06/05 11:45:05;;;;;;;1.00;0.40;;;;;;;20.12;100.00;99732.36;1690107;76;985227;-58
2022/06/05 11:47:47;;;;;;;0.42;0.30;;;;;;;20.12;100.00;99732.36;1806166;75;866009;-59
2022/06/05 11:50:50;;;;;;;1.40;0.40;;;;;;;20.41;100.00;99731.20;1752469;76;892818;-60
2022/06/05 11:54:22;;;;;;;0.30;0.30;;;;;;;20.50;100.00;99729.84;1645703;75;985106;-58
2022/06/05 11:58:15;;;;;;;0.20;0.20;;;;;;;20.50;100.00;99729.84;1616998;75;975384;-58
2022/06/05 12:01:04;;;;;;;0.60;0.37;;;;;;;20.50;100.00;99729.84;1610942;76;985087;-59
2022/06/05 12:03:46;;;;;;;0.40;0.30;;;;;;;20.50;100.00;99729.84;1692373;75;975475;-59
2022/06/05 12:06:41;;;;;;;0.30;0.30;;;;;;;20.97;100.00;99737.87;1834070;75;22551;-60
2022/06/05 12:09:19;;;;;;;0.30;0.20;;;;;;;20.92;100.00;99737.44;1773853;76;985164;-58
2022/06/05 12:12:13;;;;;;;0.50;0.40;;;;;;;20.84;100.00;99739.97;1800360;75;975139;-59
2022/06/05 12:14:59;;;;;;;0.53;0.20;;;;;;;20.78;100.00;99735.06;1736678;76;975150;-59
2022/06/05 12:17:44;;;;;;;0.60;0.40;;;;;;;20.78;100.00;99735.06;1826186;76;565483;-58
2022/06/05 12:20:37;;;;;;;0.20;0.20;;;;;;;20.78;100.00;99735.06;1649572;75;975353;-59
2022/06/05 12:23:27;;;;;;;6.10;0.80;;;;;;;20.96;100.00;99736.13;1803562;76;962299;-60
2022/06/05 12:26:18;;;;;;;0.98;0.40;;;;;;;21.13;100.00;99726.37;1839869;76;21086;-59